sensor_id;sensor_type;location;lat;lon;timestamp;P1;durP1;ratioP1;P2;durP2;ratioP2
46753;SDS011;32500;50.620;3.400;2022-12-18T00:03:58;78.87;;;59.10;;
46753;SDS011;32500;50.620;3.400;2022-12-18T00:06:26;77.67;;;58.73;;
46753;SDS011;32500;50.620;3.400;2022-12-18T00:08:53;77.77;;;58.37;;
46753;SDS011;32500;50.620;3.400;2022-12-18T00:11:21;78.50;;;58.47;;
46753;SDS011;32500;50.620;3.400;2022-12-18T00:13:47;77.67;;;58.67;;
46753;SDS011;32500;50.620;3.400;2022-12-18T00:16:15;79.60;;;58.77;;
46753;SDS011;32500;50.620;3.400;2022-12-18T00:18:50;78.73;;;59.03;;
46753;SDS011;32500;50.620;3.400;2022-12-18T00:21:17;78.30;;;58.70;;
46753;SDS011;32500;50.620;3.400;2022-12-18T00:23:44;77.50;;;58.60;;
46753;SDS011;32500;50.620;3.400;2022-12-18T00:26:12;81.43;;;59.77;;
46753;SDS011;32500;50.620;3.400;2022-12-18T00:28:41;81.00;;;58.83;;
46753;SDS011;32500;50.620;3.400;2022-12-18T00:31:09;78.40;;;58.43;;
46753;SDS011;32500;50.620;3.400;2022-12-18T00:33:36;77.90;;;58.93;;
46753;SDS011;32500;50.620;3.400;2022-12-18T00:36:03;79.93;;;58.43;;
46753;SDS011;32500;50.620;3.400;2022-12-18T00:38:30;73.37;;;57.20;;
46753;SDS011;32500;50.620;3.400;2022-12-18T00:40:55;79.47;;;58.93;;
46753;SDS011;32500;50.620;3.400;2022-12-18T00:43:21;77.70;;;58.40;;
46753;SDS011;32500;50.620;3.400;2022-12-18T00:45:47;76.47;;;58.87;;
46753;SDS011;32500;50.620;3.400;2022-12-18T00:48:12;77.63;;;58.47;;
46753;SDS011;32500;50.620;3.400;2022-12-18T00:50:38;77.30;;;58.37;;
46753;SDS011;32500;50.620;3.400;2022-12-18T00:53:04;77.50;;;59.67;;
46753;SDS011;32500;50.620;3.400;2022-12-18T00:55:29;81.27;;;58.87;;
46753;SDS011;32500;50.620;3.400;2022-12-18T00:57:55;77.93;;;58.67;;
46753;SDS011;32500;50.620;3.400;2022-12-18T01:00:21;79.40;;;59.27;;
46753;SDS011;32500;50.620;3.400;2022-12-18T01:02:47;76.07;;;57.63;;
46753;SDS011;32500;50.620;3.400;2022-12-18T01:05:13;78.47;;;58.53;;
46753;SDS011;32500;50.620;3.400;2022-12-18T01:07:39;75.50;;;58.10;;
46753;SDS011;32500;50.620;3.400;2022-12-18T01:10:06;79.87;;;58.47;;
46753;SDS011;32500;50.620;3.400;2022-12-18T01:12:32;78.73;;;58.60;;
46753;SDS011;32500;50.620;3.400;2022-12-18T01:14:58;75.60;;;57.63;;
46753;SDS011;32500;50.620;3.400;2022-12-18T01:17:24;79.30;;;58.00;;
46753;SDS011;32500;50.620;3.400;2022-12-18T01:19:50;76.00;;;57.73;;
46753;SDS011;32500;50.620;3.400;2022-12-18T01:22:15;78.53;;;57.93;;
46753;SDS011;32500;50.620;3.400;2022-12-18T01:24:41;77.67;;;58.57;;
46753;SDS011;32500;50.620;3.400;2022-12-18T01:27:07;80.40;;;58.70;;
46753;SDS011;32500;50.620;3.400;2022-12-18T01:29:32;74.67;;;58.47;;
46753;SDS011;32500;50.620;3.400;2022-12-18T01:31:58;77.73;;;57.90;;
46753;SDS011;32500;50.620;3.400;2022-12-18T01:34:24;77.20;;;58.63;;
46753;SDS011;32500;50.620;3.400;2022-12-18T01:36:49;77.60;;;59.10;;
46753;SDS011;32500;50.620;3.400;2022-12-18T01:39:18;78.87;;;58.60;;
46753;SDS011;32500;50.620;3.400;2022-12-18T01:41:44;76.13;;;58.43;;
46753;SDS011;32500;50.620;3.400;2022-12-18T01:50:08;77.03;;;58.07;;
46753;SDS011;32500;50.620;3.400;2022-12-18T01:52:45;80.03;;;58.27;;
46753;SDS011;32500;50.620;3.400;2022-12-18T01:55:14;78.33;;;58.60;;
46753;SDS011;32500;50.620;3.400;2022-12-18T01:57:43;75.50;;;57.30;;
46753;SDS011;32500;50.620;3.400;2022-12-18T02:00:19;76.83;;;57.80;;
46753;SDS011;32500;50.620;3.400;2022-12-18T02:02:46;77.37;;;57.40;;
46753;SDS011;32500;50.620;3.400;2022-12-18T02:05:14;76.20;;;57.90;;
46753;SDS011;32500;50.620;3.400;2022-12-18T02:19:27;77.70;;;58.73;;
46753;SDS011;32500;50.620;3.400;2022-12-18T02:22:24;75.70;;;58.43;;
46753;SDS011;32500;50.620;3.400;2022-12-18T02:25:23;74.70;;;57.23;;
46753;SDS011;32500;50.620;3.400;2022-12-18T02:28:03;78.13;;;58.00;;
46753;SDS011;32500;50.620;3.400;2022-12-18T02:30:34;75.28;;;57.72;;
46753;SDS011;32500;50.620;3.400;2022-12-18T02:33:02;75.50;;;56.30;;
46753;SDS011;32500;50.620;3.400;2022-12-18T02:35:31;74.13;;;56.60;;
46753;SDS011;32500;50.620;3.400;2022-12-18T02:37:58;78.53;;;58.67;;
46753;SDS011;32500;50.620;3.400;2022-12-18T02:40:25;76.37;;;57.30;;
46753;SDS011;32500;50.620;3.400;2022-12-18T02:42:52;76.47;;;58.57;;
46753;SDS011;32500;50.620;3.400;2022-12-18T02:45:18;74.23;;;57.37;;
46753;SDS011;32500;50.620;3.400;2022-12-18T02:47:44;75.87;;;56.73;;
46753;SDS011;32500;50.620;3.400;2022-12-18T03:01:25;77.40;;;58.40;;
46753;SDS011;32500;50.620;3.400;2022-12-18T03:03:55;74.63;;;57.77;;
46753;SDS011;32500;50.620;3.400;2022-12-18T03:06:35;74.57;;;56.90;;
46753;SDS011;32500;50.620;3.400;2022-12-18T03:09:07;73.25;;;56.47;;
46753;SDS011;32500;50.620;3.400;2022-12-18T03:11:38;73.63;;;56.28;;
46753;SDS011;32500;50.620;3.400;2022-12-18T03:14:25;76.27;;;57.30;;
46753;SDS011;32500;50.620;3.400;2022-12-18T03:16:54;72.43;;;56.20;;
46753;SDS011;32500;50.620;3.400;2022-12-18T03:19:25;72.10;;;56.30;;
46753;SDS011;32500;50.620;3.400;2022-12-18T03:21:55;71.10;;;56.13;;
46753;SDS011;32500;50.620;3.400;2022-12-18T03:24:22;72.50;;;56.43;;
46753;SDS011;32500;50.620;3.400;2022-12-18T03:26:52;70.77;;;56.30;;
46753;SDS011;32500;50.620;3.400;2022-12-18T03:29:23;71.40;;;55.55;;
46753;SDS011;32500;50.620;3.400;2022-12-18T03:31:54;71.72;;;56.08;;
46753;SDS011;32500;50.620;3.400;2022-12-18T03:37:02;75.67;;;59.93;;
46753;SDS011;32500;50.620;3.400;2022-12-18T03:39:28;73.80;;;58.67;;
46753;SDS011;32500;50.620;3.400;2022-12-18T03:44:50;73.57;;;57.37;;
46753;SDS011;32500;50.620;3.400;2022-12-18T03:50:13;72.70;;;56.50;;
46753;SDS011;32500;50.620;3.400;2022-12-18T03:56:05;70.70;;;56.43;;
46753;SDS011;32500;50.620;3.400;2022-12-18T03:58:33;76.33;;;58.73;;
46753;SDS011;32500;50.620;3.400;2022-12-18T04:01:02;75.40;;;57.97;;
46753;SDS011;32500;50.620;3.400;2022-12-18T04:03:33;72.13;;;56.53;;
46753;SDS011;32500;50.620;3.400;2022-12-18T04:06:00;73.23;;;55.80;;
46753;SDS011;32500;50.620;3.400;2022-12-18T04:08:27;71.07;;;56.47;;
46753;SDS011;32500;50.620;3.400;2022-12-18T04:10:53;71.13;;;56.07;;
46753;SDS011;32500;50.620;3.400;2022-12-18T04:13:37;69.97;;;55.57;;
46753;SDS011;32500;50.620;3.400;2022-12-18T04:16:04;70.80;;;56.00;;
46753;SDS011;32500;50.620;3.400;2022-12-18T04:18:30;72.93;;;55.23;;
46753;SDS011;32500;50.620;3.400;2022-12-18T04:20:56;73.60;;;55.73;;
46753;SDS011;32500;50.620;3.400;2022-12-18T04:23:21;69.87;;;55.53;;
46753;SDS011;32500;50.620;3.400;2022-12-18T04:25:47;69.20;;;55.17;;
46753;SDS011;32500;50.620;3.400;2022-12-18T04:28:13;71.20;;;55.70;;
46753;SDS011;32500;50.620;3.400;2022-12-18T04:30:39;71.20;;;54.83;;
46753;SDS011;32500;50.620;3.400;2022-12-18T04:33:08;69.00;;;55.03;;
46753;SDS011;32500;50.620;3.400;2022-12-18T04:35:35;70.43;;;54.73;;
46753;SDS011;32500;50.620;3.400;2022-12-18T04:38:00;69.63;;;54.77;;
46753;SDS011;32500;50.620;3.400;2022-12-18T04:40:26;68.60;;;55.03;;
46753;SDS011;32500;50.620;3.400;2022-12-18T04:42:52;69.77;;;54.67;;
46753;SDS011;32500;50.620;3.400;2022-12-18T04:45:17;66.57;;;53.47;;
46753;SDS011;32500;50.620;3.400;2022-12-18T04:47:43;70.23;;;54.17;;
46753;SDS011;32500;50.620;3.400;2022-12-18T04:50:09;68.03;;;53.47;;
46753;SDS011;32500;50.620;3.400;2022-12-18T04:52:35;70.17;;;54.50;;
46753;SDS011;32500;50.620;3.400;2022-12-18T04:55:01;67.77;;;53.90;;
46753;SDS011;32500;50.620;3.400;2022-12-18T04:57:26;68.80;;;53.97;;
46753;SDS011;32500;50.620;3.400;2022-12-18T04:59:52;68.53;;;55.10;;
46753;SDS011;32500;50.620;3.400;2022-12-18T05:02:17;67.73;;;53.63;;
46753;SDS011;32500;50.620;3.400;2022-12-18T05:04:43;66.23;;;53.30;;
46753;SDS011;32500;50.620;3.400;2022-12-18T05:07:09;69.17;;;54.10;;
46753;SDS011;32500;50.620;3.400;2022-12-18T05:09:34;67.13;;;53.47;;
46753;SDS011;32500;50.620;3.400;2022-12-18T05:12:00;66.70;;;53.33;;
46753;SDS011;32500;50.620;3.400;2022-12-18T05:14:25;67.53;;;53.83;;
46753;SDS011;32500;50.620;3.400;2022-12-18T05:16:52;66.67;;;53.03;;
46753;SDS011;32500;50.620;3.400;2022-12-18T05:19:18;67.93;;;53.40;;
46753;SDS011;32500;50.620;3.400;2022-12-18T05:21:43;65.30;;;52.77;;
46753;SDS011;32500;50.620;3.400;2022-12-18T05:24:09;67.27;;;53.53;;
46753;SDS011;32500;50.620;3.400;2022-12-18T05:26:35;67.03;;;53.70;;
46753;SDS011;32500;50.620;3.400;2022-12-18T05:29:00;67.97;;;54.23;;
46753;SDS011;32500;50.620;3.400;2022-12-18T05:31:26;67.23;;;53.80;;
46753;SDS011;32500;50.620;3.400;2022-12-18T05:33:51;69.00;;;54.90;;
46753;SDS011;32500;50.620;3.400;2022-12-18T05:36:17;69.20;;;53.33;;
46753;SDS011;32500;50.620;3.400;2022-12-18T05:38:43;69.07;;;53.47;;
46753;SDS011;32500;50.620;3.400;2022-12-18T05:41:09;68.27;;;53.03;;
46753;SDS011;32500;50.620;3.400;2022-12-18T05:43:35;67.40;;;53.00;;
46753;SDS011;32500;50.620;3.400;2022-12-18T05:46:06;66.23;;;52.83;;
46753;SDS011;32500;50.620;3.400;2022-12-18T05:48:33;67.83;;;52.53;;
46753;SDS011;32500;50.620;3.400;2022-12-18T05:51:09;66.17;;;53.20;;
46753;SDS011;32500;50.620;3.400;2022-12-18T05:53:37;66.10;;;53.67;;
46753;SDS011;32500;50.620;3.400;2022-12-18T05:56:06;65.63;;;52.40;;
46753;SDS011;32500;50.620;3.400;2022-12-18T05:58:36;67.30;;;52.27;;
46753;SDS011;32500;50.620;3.400;2022-12-18T06:01:21;67.33;;;52.83;;
46753;SDS011;32500;50.620;3.400;2022-12-18T06:03:49;65.73;;;51.70;;
46753;SDS011;32500;50.620;3.400;2022-12-18T06:06:19;62.93;;;51.70;;
46753;SDS011;32500;50.620;3.400;2022-12-18T06:08:51;64.47;;;51.83;;
46753;SDS011;32500;50.620;3.400;2022-12-18T06:11:19;65.00;;;51.73;;
46753;SDS011;32500;50.620;3.400;2022-12-18T06:13:46;64.67;;;51.93;;
46753;SDS011;32500;50.620;3.400;2022-12-18T06:16:14;63.27;;;52.00;;
46753;SDS011;32500;50.620;3.400;2022-12-18T06:18:39;65.23;;;52.43;;
46753;SDS011;32500;50.620;3.400;2022-12-18T06:21:05;64.07;;;51.27;;
46753;SDS011;32500;50.620;3.400;2022-12-18T06:23:31;63.30;;;51.47;;
46753;SDS011;32500;50.620;3.400;2022-12-18T06:25:57;66.00;;;51.50;;
46753;SDS011;32500;50.620;3.400;2022-12-18T06:28:22;63.77;;;51.23;;
46753;SDS011;32500;50.620;3.400;2022-12-18T06:30:48;63.70;;;51.13;;
46753;SDS011;32500;50.620;3.400;2022-12-18T06:33:15;63.37;;;51.30;;
46753;SDS011;32500;50.620;3.400;2022-12-18T06:35:41;65.97;;;51.60;;
46753;SDS011;32500;50.620;3.400;2022-12-18T06:38:07;65.37;;;51.37;;
46753;SDS011;32500;50.620;3.400;2022-12-18T06:40:33;62.20;;;51.33;;
46753;SDS011;32500;50.620;3.400;2022-12-18T06:42:59;61.83;;;51.07;;
46753;SDS011;32500;50.620;3.400;2022-12-18T06:45:24;64.63;;;51.20;;
46753;SDS011;32500;50.620;3.400;2022-12-18T06:47:50;62.00;;;50.53;;
46753;SDS011;32500;50.620;3.400;2022-12-18T06:50:16;62.40;;;50.73;;
46753;SDS011;32500;50.620;3.400;2022-12-18T06:52:42;62.17;;;51.50;;
46753;SDS011;32500;50.620;3.400;2022-12-18T06:55:09;62.27;;;50.47;;
46753;SDS011;32500;50.620;3.400;2022-12-18T06:57:35;62.10;;;51.10;;
46753;SDS011;32500;50.620;3.400;2022-12-18T07:00:01;61.03;;;50.47;;
46753;SDS011;32500;50.620;3.400;2022-12-18T07:02:27;62.70;;;51.63;;
46753;SDS011;32500;50.620;3.400;2022-12-18T07:04:53;62.23;;;50.87;;
46753;SDS011;32500;50.620;3.400;2022-12-18T07:07:19;60.67;;;49.53;;
46753;SDS011;32500;50.620;3.400;2022-12-18T07:09:44;62.77;;;51.03;;
46753;SDS011;32500;50.620;3.400;2022-12-18T07:12:10;61.27;;;50.20;;
46753;SDS011;32500;50.620;3.400;2022-12-18T07:14:35;60.80;;;50.00;;
46753;SDS011;32500;50.620;3.400;2022-12-18T07:17:01;62.47;;;50.07;;
46753;SDS011;32500;50.620;3.400;2022-12-18T07:19:27;62.40;;;50.73;;
46753;SDS011;32500;50.620;3.400;2022-12-18T07:21:52;61.67;;;50.70;;
46753;SDS011;32500;50.620;3.400;2022-12-18T07:24:18;59.83;;;49.50;;
46753;SDS011;32500;50.620;3.400;2022-12-18T07:26:46;62.03;;;51.00;;
46753;SDS011;32500;50.620;3.400;2022-12-18T07:29:12;60.57;;;49.73;;
46753;SDS011;32500;50.620;3.400;2022-12-18T07:31:38;63.20;;;50.13;;
46753;SDS011;32500;50.620;3.400;2022-12-18T07:34:04;61.23;;;50.33;;
46753;SDS011;32500;50.620;3.400;2022-12-18T07:36:29;61.90;;;50.70;;
46753;SDS011;32500;50.620;3.400;2022-12-18T07:38:55;60.07;;;50.30;;
46753;SDS011;32500;50.620;3.400;2022-12-18T07:41:21;61.03;;;50.67;;
46753;SDS011;32500;50.620;3.400;2022-12-18T07:43:46;61.17;;;50.30;;
46753;SDS011;32500;50.620;3.400;2022-12-18T07:46:13;61.07;;;50.47;;
46753;SDS011;32500;50.620;3.400;2022-12-18T07:48:40;61.40;;;51.03;;
46753;SDS011;32500;50.620;3.400;2022-12-18T07:51:06;62.83;;;50.53;;
46753;SDS011;32500;50.620;3.400;2022-12-18T07:53:33;61.97;;;50.53;;
46753;SDS011;32500;50.620;3.400;2022-12-18T07:56:01;65.97;;;52.33;;
46753;SDS011;32500;50.620;3.400;2022-12-18T07:58:29;63.27;;;50.57;;
46753;SDS011;32500;50.620;3.400;2022-12-18T08:01:02;63.80;;;50.90;;
46753;SDS011;32500;50.620;3.400;2022-12-18T08:03:35;61.80;;;50.37;;
46753;SDS011;32500;50.620;3.400;2022-12-18T08:06:02;62.07;;;50.80;;
46753;SDS011;32500;50.620;3.400;2022-12-18T08:08:29;62.90;;;50.33;;
46753;SDS011;32500;50.620;3.400;2022-12-18T08:10:55;62.20;;;50.83;;
46753;SDS011;32500;50.620;3.400;2022-12-18T08:13:21;61.97;;;50.67;;
46753;SDS011;32500;50.620;3.400;2022-12-18T08:15:55;62.13;;;50.57;;
46753;SDS011;32500;50.620;3.400;2022-12-18T08:18:27;60.27;;;50.23;;
46753;SDS011;32500;50.620;3.400;2022-12-18T08:20:53;61.83;;;50.07;;
46753;SDS011;32500;50.620;3.400;2022-12-18T08:23:20;61.90;;;50.67;;
46753;SDS011;32500;50.620;3.400;2022-12-18T08:25:46;62.63;;;51.13;;
46753;SDS011;32500;50.620;3.400;2022-12-18T08:28:11;64.57;;;50.83;;
46753;SDS011;32500;50.620;3.400;2022-12-18T08:30:37;61.93;;;50.67;;
46753;SDS011;32500;50.620;3.400;2022-12-18T08:33:03;63.47;;;50.83;;
46753;SDS011;32500;50.620;3.400;2022-12-18T08:35:28;65.00;;;52.43;;
46753;SDS011;32500;50.620;3.400;2022-12-18T08:37:54;62.10;;;51.27;;
46753;SDS011;32500;50.620;3.400;2022-12-18T08:40:20;65.43;;;51.97;;
46753;SDS011;32500;50.620;3.400;2022-12-18T08:42:45;66.63;;;54.30;;
46753;SDS011;32500;50.620;3.400;2022-12-18T08:45:30;69.33;;;55.13;;
46753;SDS011;32500;50.620;3.400;2022-12-18T08:47:58;66.73;;;54.23;;
46753;SDS011;32500;50.620;3.400;2022-12-18T08:50:23;68.60;;;54.33;;
46753;SDS011;32500;50.620;3.400;2022-12-18T08:52:49;64.97;;;52.97;;
46753;SDS011;32500;50.620;3.400;2022-12-18T08:55:15;68.27;;;53.23;;
46753;SDS011;32500;50.620;3.400;2022-12-18T08:57:40;65.60;;;53.30;;
46753;SDS011;32500;50.620;3.400;2022-12-18T09:00:06;68.30;;;53.50;;
46753;SDS011;32500;50.620;3.400;2022-12-18T09:02:32;68.53;;;53.23;;
46753;SDS011;32500;50.620;3.400;2022-12-18T09:04:58;66.97;;;52.90;;
46753;SDS011;32500;50.620;3.400;2022-12-18T09:07:24;68.77;;;53.93;;
46753;SDS011;32500;50.620;3.400;2022-12-18T09:09:49;72.50;;;55.30;;
46753;SDS011;32500;50.620;3.400;2022-12-18T09:12:15;71.43;;;54.63;;
46753;SDS011;32500;50.620;3.400;2022-12-18T09:14:41;71.53;;;53.93;;
46753;SDS011;32500;50.620;3.400;2022-12-18T09:17:06;76.90;;;54.40;;
46753;SDS011;32500;50.620;3.400;2022-12-18T09:19:32;71.27;;;54.23;;
46753;SDS011;32500;50.620;3.400;2022-12-18T09:21:58;75.80;;;54.90;;
46753;SDS011;32500;50.620;3.400;2022-12-18T09:24:23;71.90;;;54.67;;
46753;SDS011;32500;50.620;3.400;2022-12-18T09:26:52;70.87;;;54.33;;
46753;SDS011;32500;50.620;3.400;2022-12-18T09:29:19;74.53;;;54.47;;
46753;SDS011;32500;50.620;3.400;2022-12-18T09:31:45;74.00;;;54.63;;
46753;SDS011;32500;50.620;3.400;2022-12-18T09:34:11;73.27;;;54.47;;
46753;SDS011;32500;50.620;3.400;2022-12-18T09:36:38;71.17;;;54.00;;
46753;SDS011;32500;50.620;3.400;2022-12-18T09:39:03;75.37;;;55.60;;
46753;SDS011;32500;50.620;3.400;2022-12-18T09:49:35;75.83;;;53.40;;
46753;SDS011;32500;50.620;3.400;2022-12-18T09:52:11;74.13;;;53.83;;
46753;SDS011;32500;50.620;3.400;2022-12-18T09:55:09;77.77;;;53.87;;
46753;SDS011;32500;50.620;3.400;2022-12-18T09:58:30;74.60;;;53.57;;
46753;SDS011;32500;50.620;3.400;2022-12-18T10:00:32;75.77;;;53.20;;
46753;SDS011;32500;50.620;3.400;2022-12-18T10:02:59;77.93;;;54.93;;
46753;SDS011;32500;50.620;3.400;2022-12-18T10:05:37;74.53;;;54.00;;
46753;SDS011;32500;50.620;3.400;2022-12-18T10:09:18;74.23;;;54.03;;
46753;SDS011;32500;50.620;3.400;2022-12-18T10:14:00;74.87;;;54.33;;
46753;SDS011;32500;50.620;3.400;2022-12-18T10:21:56;71.83;;;53.47;;
46753;SDS011;32500;50.620;3.400;2022-12-18T10:27:17;72.63;;;53.53;;
46753;SDS011;32500;50.620;3.400;2022-12-18T10:29:46;75.65;;;54.50;;
46753;SDS011;32500;50.620;3.400;2022-12-18T10:32:16;76.07;;;54.30;;
46753;SDS011;32500;50.620;3.400;2022-12-18T10:34:47;69.38;;;53.45;;
46753;SDS011;32500;50.620;3.400;2022-12-18T10:37:18;76.70;;;54.25;;
46753;SDS011;32500;50.620;3.400;2022-12-18T10:40:04;74.75;;;53.45;;
46753;SDS011;32500;50.620;3.400;2022-12-18T10:42:38;72.82;;;54.45;;
46753;SDS011;32500;50.620;3.400;2022-12-18T10:45:13;74.28;;;55.40;;
46753;SDS011;32500;50.620;3.400;2022-12-18T10:47:44;75.40;;;55.17;;
46753;SDS011;32500;50.620;3.400;2022-12-18T10:50:29;73.57;;;54.43;;
46753;SDS011;32500;50.620;3.400;2022-12-18T10:52:58;75.03;;;53.85;;
46753;SDS011;32500;50.620;3.400;2022-12-18T10:55:27;75.32;;;53.72;;
46753;SDS011;32500;50.620;3.400;2022-12-18T11:00:45;75.03;;;54.78;;
46753;SDS011;32500;50.620;3.400;2022-12-18T11:03:44;75.97;;;54.30;;
46753;SDS011;32500;50.620;3.400;2022-12-18T11:06:33;75.68;;;55.03;;
46753;SDS011;32500;50.620;3.400;2022-12-18T11:09:00;74.45;;;54.88;;
46753;SDS011;32500;50.620;3.400;2022-12-18T11:11:31;75.80;;;54.50;;
46753;SDS011;32500;50.620;3.400;2022-12-18T11:14:12;75.35;;;55.65;;
46753;SDS011;32500;50.620;3.400;2022-12-18T11:16:44;72.85;;;54.00;;
46753;SDS011;32500;50.620;3.400;2022-12-18T11:19:19;77.97;;;54.78;;
46753;SDS011;32500;50.620;3.400;2022-12-18T11:21:49;81.03;;;55.25;;
46753;SDS011;32500;50.620;3.400;2022-12-18T11:24:19;76.90;;;54.63;;
46753;SDS011;32500;50.620;3.400;2022-12-18T11:26:51;77.82;;;53.40;;
46753;SDS011;32500;50.620;3.400;2022-12-18T11:29:18;73.50;;;54.80;;
46753;SDS011;32500;50.620;3.400;2022-12-18T11:31:48;75.75;;;56.55;;
46753;SDS011;32500;50.620;3.400;2022-12-18T11:36:52;84.43;;;56.13;;
46753;SDS011;32500;50.620;3.400;2022-12-18T11:39:20;75.30;;;56.03;;
46753;SDS011;32500;50.620;3.400;2022-12-18T11:45:01;77.82;;;56.33;;
46753;SDS011;32500;50.620;3.400;2022-12-18T11:47:28;76.45;;;56.65;;
46753;SDS011;32500;50.620;3.400;2022-12-18T11:49:59;79.13;;;56.38;;
46753;SDS011;32500;50.620;3.400;2022-12-18T11:52:34;74.97;;;56.08;;
46753;SDS011;32500;50.620;3.400;2022-12-18T11:55:13;77.72;;;57.22;;
46753;SDS011;32500;50.620;3.400;2022-12-18T12:00:20;78.82;;;56.90;;
46753;SDS011;32500;50.620;3.400;2022-12-18T12:08:22;76.10;;;56.58;;
46753;SDS011;32500;50.620;3.400;2022-12-18T12:13:29;77.53;;;56.35;;
46753;SDS011;32500;50.620;3.400;2022-12-18T12:30:20;80.47;;;57.67;;
46753;SDS011;32500;50.620;3.400;2022-12-18T12:35:40;80.55;;;57.70;;
46753;SDS011;32500;50.620;3.400;2022-12-18T12:38:39;86.90;;;57.72;;
46753;SDS011;32500;50.620;3.400;2022-12-18T12:41:17;79.60;;;57.10;;
46753;SDS011;32500;50.620;3.400;2022-12-18T12:44:05;77.85;;;57.22;;
46753;SDS011;32500;50.620;3.400;2022-12-18T12:46:38;85.35;;;56.33;;
46753;SDS011;32500;50.620;3.400;2022-12-18T12:49:11;80.65;;;56.95;;
46753;SDS011;32500;50.620;3.400;2022-12-18T12:51:43;81.18;;;57.45;;
46753;SDS011;32500;50.620;3.400;2022-12-18T12:54:21;78.22;;;56.45;;
46753;SDS011;32500;50.620;3.400;2022-12-18T12:56:55;82.03;;;57.45;;
46753;SDS011;32500;50.620;3.400;2022-12-18T13:10:56;87.63;;;59.30;;
46753;SDS011;32500;50.620;3.400;2022-12-18T13:13:49;84.25;;;58.00;;
46753;SDS011;32500;50.620;3.400;2022-12-18T13:16:21;80.22;;;57.67;;
46753;SDS011;32500;50.620;3.400;2022-12-18T13:18:51;85.18;;;56.95;;
46753;SDS011;32500;50.620;3.400;2022-12-18T13:21:25;82.38;;;56.80;;
46753;SDS011;32500;50.620;3.400;2022-12-18T13:23:54;77.22;;;56.30;;
46753;SDS011;32500;50.620;3.400;2022-12-18T13:28:54;82.07;;;57.47;;
46753;SDS011;32500;50.620;3.400;2022-12-18T13:34:24;80.60;;;56.10;;
46753;SDS011;32500;50.620;3.400;2022-12-18T13:36:52;79.95;;;56.60;;
46753;SDS011;32500;50.620;3.400;2022-12-18T13:41:46;80.68;;;56.92;;
46753;SDS011;32500;50.620;3.400;2022-12-18T13:44:25;80.75;;;56.30;;
46753;SDS011;32500;50.620;3.400;2022-12-18T13:46:53;83.93;;;55.45;;
46753;SDS011;32500;50.620;3.400;2022-12-18T13:49:23;82.75;;;57.05;;
46753;SDS011;32500;50.620;3.400;2022-12-18T13:51:54;80.38;;;56.47;;
46753;SDS011;32500;50.620;3.400;2022-12-18T13:56:56;80.13;;;56.28;;
46753;SDS011;32500;50.620;3.400;2022-12-18T13:59:25;80.63;;;55.50;;
46753;SDS011;32500;50.620;3.400;2022-12-18T14:01:58;79.80;;;56.42;;
46753;SDS011;32500;50.620;3.400;2022-12-18T14:04:32;84.15;;;56.60;;
46753;SDS011;32500;50.620;3.400;2022-12-18T14:07:03;81.85;;;57.53;;
46753;SDS011;32500;50.620;3.400;2022-12-18T14:09:36;80.25;;;57.00;;
46753;SDS011;32500;50.620;3.400;2022-12-18T14:12:05;82.72;;;56.85;;
46753;SDS011;32500;50.620;3.400;2022-12-18T14:14:51;81.72;;;55.50;;
46753;SDS011;32500;50.620;3.400;2022-12-18T14:17:18;78.65;;;55.63;;
46753;SDS011;32500;50.620;3.400;2022-12-18T14:19:44;79.00;;;56.78;;
46753;SDS011;32500;50.620;3.400;2022-12-18T14:22:16;79.60;;;55.80;;
46753;SDS011;32500;50.620;3.400;2022-12-18T14:24:46;78.77;;;55.40;;
46753;SDS011;32500;50.620;3.400;2022-12-18T14:27:25;82.10;;;56.80;;
46753;SDS011;32500;50.620;3.400;2022-12-18T14:29:51;80.45;;;57.13;;
46753;SDS011;32500;50.620;3.400;2022-12-18T14:32:17;81.30;;;56.95;;
46753;SDS011;32500;50.620;3.400;2022-12-18T14:34:45;83.07;;;57.65;;
46753;SDS011;32500;50.620;3.400;2022-12-18T14:37:13;80.45;;;56.58;;
46753;SDS011;32500;50.620;3.400;2022-12-18T14:39:51;88.45;;;56.53;;
46753;SDS011;32500;50.620;3.400;2022-12-18T14:42:30;82.63;;;56.85;;
46753;SDS011;32500;50.620;3.400;2022-12-18T14:48:06;79.32;;;55.97;;
46753;SDS011;32500;50.620;3.400;2022-12-18T14:50:32;78.70;;;56.92;;
46753;SDS011;32500;50.620;3.400;2022-12-18T14:52:58;83.63;;;56.03;;
46753;SDS011;32500;50.620;3.400;2022-12-18T14:55:24;79.72;;;56.20;;
46753;SDS011;32500;50.620;3.400;2022-12-18T14:57:50;80.70;;;56.83;;
46753;SDS011;32500;50.620;3.400;2022-12-18T15:00:20;80.25;;;56.42;;
46753;SDS011;32500;50.620;3.400;2022-12-18T15:02:51;78.68;;;55.95;;
46753;SDS011;32500;50.620;3.400;2022-12-18T15:05:20;81.22;;;56.53;;
46753;SDS011;32500;50.620;3.400;2022-12-18T15:07:51;82.70;;;56.40;;
46753;SDS011;32500;50.620;3.400;2022-12-18T15:20:55;83.63;;;58.90;;
46753;SDS011;32500;50.620;3.400;2022-12-18T15:26:13;81.75;;;57.65;;
46753;SDS011;32500;50.620;3.400;2022-12-18T15:28:45;86.25;;;58.30;;
46753;SDS011;32500;50.620;3.400;2022-12-18T15:33:42;81.38;;;57.90;;
46753;SDS011;32500;50.620;3.400;2022-12-18T15:36:12;85.55;;;58.55;;
46753;SDS011;32500;50.620;3.400;2022-12-18T15:38:39;82.35;;;58.38;;
46753;SDS011;32500;50.620;3.400;2022-12-18T15:41:05;82.07;;;57.38;;
46753;SDS011;32500;50.620;3.400;2022-12-18T15:43:37;85.20;;;59.88;;
46753;SDS011;32500;50.620;3.400;2022-12-18T15:46:10;85.78;;;58.40;;
46753;SDS011;32500;50.620;3.400;2022-12-18T15:48:41;79.65;;;57.30;;
46753;SDS011;32500;50.620;3.400;2022-12-18T15:51:13;85.55;;;58.00;;
46753;SDS011;32500;50.620;3.400;2022-12-18T15:53:42;79.50;;;57.85;;
46753;SDS011;32500;50.620;3.400;2022-12-18T15:56:11;81.07;;;57.53;;
46753;SDS011;32500;50.620;3.400;2022-12-18T16:01:16;80.82;;;58.53;;
46753;SDS011;32500;50.620;3.400;2022-12-18T16:03:44;80.60;;;58.25;;
46753;SDS011;32500;50.620;3.400;2022-12-18T16:06:10;81.57;;;58.58;;
46753;SDS011;32500;50.620;3.400;2022-12-18T16:08:35;85.35;;;58.17;;
46753;SDS011;32500;50.620;3.400;2022-12-18T16:11:01;81.90;;;57.92;;
46753;SDS011;32500;50.620;3.400;2022-12-18T16:13:27;78.82;;;57.80;;
46753;SDS011;32500;50.620;3.400;2022-12-18T16:15:53;83.05;;;57.45;;
46753;SDS011;32500;50.620;3.400;2022-12-18T16:18:18;82.68;;;58.13;;
46753;SDS011;32500;50.620;3.400;2022-12-18T16:20:44;77.13;;;56.45;;
46753;SDS011;32500;50.620;3.400;2022-12-18T16:24:18;77.80;;;57.35;;
46753;SDS011;32500;50.620;3.400;2022-12-18T16:28:46;79.13;;;55.63;;
46753;SDS011;32500;50.620;3.400;2022-12-18T16:31:12;79.70;;;56.92;;
46753;SDS011;32500;50.620;3.400;2022-12-18T16:33:38;78.80;;;56.65;;
46753;SDS011;32500;50.620;3.400;2022-12-18T16:36:03;81.40;;;56.45;;
46753;SDS011;32500;50.620;3.400;2022-12-18T16:38:29;79.53;;;56.47;;
46753;SDS011;32500;50.620;3.400;2022-12-18T16:40:55;81.38;;;58.70;;
46753;SDS011;32500;50.620;3.400;2022-12-18T16:43:39;100.18;;;68.50;;
46753;SDS011;32500;50.620;3.400;2022-12-18T16:46:05;108.50;;;70.68;;
46753;SDS011;32500;50.620;3.400;2022-12-18T16:48:30;97.28;;;67.03;;
46753;SDS011;32500;50.620;3.400;2022-12-18T16:51:03;96.63;;;65.78;;
46753;SDS011;32500;50.620;3.400;2022-12-18T16:53:29;96.40;;;66.22;;
46753;SDS011;32500;50.620;3.400;2022-12-18T16:55:57;90.03;;;62.20;;
46753;SDS011;32500;50.620;3.400;2022-12-18T16:58:22;95.68;;;63.40;;